sensor_id;sensor_type;location;lat;lon;timestamp;pressure;altitude;pressure_sealevel;temperature;humidity
36454;BME280;22478;51.740;-1.314;2023-02-18T00:01:35;101004.79;;;3.08;100.00
36454;BME280;22478;51.740;-1.314;2023-02-18T00:04:02;100994.38;;;2.69;100.00
36454;BME280;22478;51.740;-1.314;2023-02-18T00:06:31;100998.51;;;2.53;100.00
36454;BME280;22478;51.740;-1.314;2023-02-18T00:08:59;100999.60;;;2.73;100.00
36454;BME280;22478;51.740;-1.314;2023-02-18T00:11:28;100984.98;;;3.70;100.00
36454;BME280;22478;51.740;-1.314;2023-02-18T00:13:57;100991.75;;;2.50;100.00
36454;BME280;22478;51.740;-1.314;2023-02-18T00:16:26;100987.91;;;2.83;100.00
36454;BME280;22478;51.740;-1.314;2023-02-18T00:18:54;100988.49;;;3.00;100.00
36454;BME280;22478;51.740;-1.314;2023-02-18T00:21:22;100992.53;;;2.52;100.00
36454;BME280;22478;51.740;-1.314;2023-02-18T00:23:49;100990.75;;;2.25;100.00
36454;BME280;22478;51.740;-1.314;2023-02-18T00:26:18;100985.94;;;2.27;100.00
36454;BME280;22478;51.740;-1.314;2023-02-18T00:28:46;100984.65;;;2.17;100.00
36454;BME280;22478;51.740;-1.314;2023-02-18T00:31:16;100989.54;;;1.33;100.00
36454;BME280;22478;51.740;-1.314;2023-02-18T00:33:43;100980.80;;;3.14;100.00
36454;BME280;22478;51.740;-1.314;2023-02-18T00:36:13;100973.43;;;2.11;100.00
36454;BME280;22478;51.740;-1.314;2023-02-18T00:38:44;100960.83;;;2.31;100.00
36454;BME280;22478;51.740;-1.314;2023-02-18T00:41:11;100968.25;;;2.25;100.00
36454;BME280;22478;51.740;-1.314;2023-02-18T00:43:38;100966.79;;;2.79;100.00
36454;BME280;22478;51.740;-1.314;2023-02-18T00:46:05;100969.25;;;1.66;100.00
36454;BME280;22478;51.740;-1.314;2023-02-18T00:48:33;100961.69;;;2.73;100.00
36454;BME280;22478;51.740;-1.314;2023-02-18T00:51:02;100968.74;;;2.42;100.00
36454;BME280;22478;51.740;-1.314;2023-02-18T00:53:30;100969.00;;;2.96;100.00
36454;BME280;22478;51.740;-1.314;2023-02-18T00:55:58;100975.19;;;2.41;100.00
36454;BME280;22478;51.740;-1.314;2023-02-18T00:58:25;100971.81;;;2.19;100.00
36454;BME280;22478;51.740;-1.314;2023-02-18T01:00:53;100973.36;;;1.53;100.00
36454;BME280;22478;51.740;-1.314;2023-02-18T01:03:20;100966.75;;;1.98;100.00
36454;BME280;22478;51.740;-1.314;2023-02-18T01:05:48;100972.14;;;1.88;100.00
36454;BME280;22478;51.740;-1.314;2023-02-18T01:08:17;100965.34;;;2.55;100.00
36454;BME280;22478;51.740;-1.314;2023-02-18T01:10:46;100971.05;;;1.95;100.00
36454;BME280;22478;51.740;-1.314;2023-02-18T01:13:15;100971.35;;;2.11;100.00
36454;BME280;22478;51.740;-1.314;2023-02-18T01:15:42;100968.99;;;1.31;100.00
36454;BME280;22478;51.740;-1.314;2023-02-18T01:18:10;100965.39;;;1.73;100.00
36454;BME280;22478;51.740;-1.314;2023-02-18T01:20:39;100950.59;;;2.71;100.00
36454;BME280;22478;51.740;-1.314;2023-02-18T01:23:07;100948.48;;;2.33;100.00
36454;BME280;22478;51.740;-1.314;2023-02-18T01:25:36;100947.28;;;2.75;100.00
36454;BME280;22478;51.740;-1.314;2023-02-18T01:28:05;100941.67;;;2.98;100.00
36454;BME280;22478;51.740;-1.314;2023-02-18T01:30:33;100936.78;;;3.73;100.00
36454;BME280;22478;51.740;-1.314;2023-02-18T01:33:00;100929.80;;;3.83;100.00
36454;BME280;22478;51.740;-1.314;2023-02-18T01:35:28;100929.60;;;2.08;100.00
36454;BME280;22478;51.740;-1.314;2023-02-18T01:37:55;100921.87;;;2.46;100.00
36454;BME280;22478;51.740;-1.314;2023-02-18T01:40:27;100919.09;;;3.04;100.00
36454;BME280;22478;51.740;-1.314;2023-02-18T01:42:56;100899.14;;;4.37;100.00
36454;BME280;22478;51.740;-1.314;2023-02-18T01:45:44;100907.31;;;4.01;100.00
36454;BME280;22478;51.740;-1.314;2023-02-18T01:48:17;100914.85;;;3.22;100.00
36454;BME280;22478;51.740;-1.314;2023-02-18T01:50:48;100921.40;;;1.67;100.00
36454;BME280;22478;51.740;-1.314;2023-02-18T01:53:21;100910.04;;;2.79;100.00
36454;BME280;22478;51.740;-1.314;2023-02-18T01:55:50;100906.65;;;3.32;100.00
36454;BME280;22478;51.740;-1.314;2023-02-18T01:58:19;100897.40;;;3.48;100.00
36454;BME280;22478;51.740;-1.314;2023-02-18T02:00:46;100889.97;;;2.65;100.00
36454;BME280;22478;51.740;-1.314;2023-02-18T02:03:13;100886.86;;;3.43;100.00
36454;BME280;22478;51.740;-1.314;2023-02-18T02:05:40;100884.33;;;2.92;100.00
36454;BME280;22478;51.740;-1.314;2023-02-18T02:08:08;100888.11;;;2.50;100.00
36454;BME280;22478;51.740;-1.314;2023-02-18T02:10:44;100881.46;;;2.66;100.00
36454;BME280;22478;51.740;-1.314;2023-02-18T02:13:20;100879.17;;;2.98;100.00
36454;BME280;22478;51.740;-1.314;2023-02-18T02:15:55;100879.23;;;3.81;100.00
36454;BME280;22478;51.740;-1.314;2023-02-18T02:18:37;100879.70;;;3.90;100.00
36454;BME280;22478;51.740;-1.314;2023-02-18T02:24:06;100873.05;;;2.78;100.00
36454;BME280;22478;51.740;-1.314;2023-02-18T02:27:00;100865.68;;;2.24;100.00
36454;BME280;22478;51.740;-1.314;2023-02-18T02:32:06;100857.78;;;2.33;100.00
36454;BME280;22478;51.740;-1.314;2023-02-18T02:34:47;100855.64;;;4.24;100.00
36454;BME280;22478;51.740;-1.314;2023-02-18T02:37:22;100845.36;;;1.71;100.00
36454;BME280;22478;51.740;-1.314;2023-02-18T02:40:00;100837.33;;;3.41;100.00
36454;BME280;22478;51.740;-1.314;2023-02-18T02:42:38;100837.91;;;3.56;100.00
36454;BME280;22478;51.740;-1.314;2023-02-18T02:45:15;100835.66;;;2.15;100.00
36454;BME280;22478;51.740;-1.314;2023-02-18T02:47:48;100835.23;;;3.21;100.00
36454;BME280;22478;51.740;-1.314;2023-02-18T02:50:23;100831.78;;;3.06;100.00
36454;BME280;22478;51.740;-1.314;2023-02-18T02:52:59;100832.91;;;2.05;100.00
36454;BME280;22478;51.740;-1.314;2023-02-18T02:55:30;100844.81;;;1.24;100.00
36454;BME280;22478;51.740;-1.314;2023-02-18T02:57:57;100843.98;;;2.20;100.00
36454;BME280;22478;51.740;-1.314;2023-02-18T03:00:34;100834.14;;;2.84;100.00
36454;BME280;22478;51.740;-1.314;2023-02-18T03:03:16;100827.03;;;1.96;100.00
36454;BME280;22478;51.740;-1.314;2023-02-18T03:05:59;100820.26;;;2.42;100.00
36454;BME280;22478;51.740;-1.314;2023-02-18T03:08:41;100825.35;;;2.41;100.00
36454;BME280;22478;51.740;-1.314;2023-02-18T03:11:14;100815.34;;;3.57;100.00
36454;BME280;22478;51.740;-1.314;2023-02-18T03:13:53;100821.38;;;2.54;100.00
36454;BME280;22478;51.740;-1.314;2023-02-18T03:16:27;100813.39;;;2.05;100.00
36454;BME280;22478;51.740;-1.314;2023-02-18T03:19:02;100808.97;;;3.15;100.00
36454;BME280;22478;51.740;-1.314;2023-02-18T03:21:34;100812.82;;;2.34;100.00
36454;BME280;22478;51.740;-1.314;2023-02-18T03:24:08;100801.40;;;3.68;100.00
36454;BME280;22478;51.740;-1.314;2023-02-18T03:26:41;100794.52;;;2.96;100.00
36454;BME280;22478;51.740;-1.314;2023-02-18T03:29:11;100804.77;;;2.59;100.00
36454;BME280;22478;51.740;-1.314;2023-02-18T03:31:42;100802.94;;;2.33;100.00
36454;BME280;22478;51.740;-1.314;2023-02-18T03:34:15;100802.79;;;1.12;100.00
36454;BME280;22478;51.740;-1.314;2023-02-18T03:36:45;100796.09;;;3.52;100.00
36454;BME280;22478;51.740;-1.314;2023-02-18T03:39:15;100795.82;;;1.84;100.00
36454;BME280;22478;51.740;-1.314;2023-02-18T03:41:43;100806.52;;;2.06;100.00
36454;BME280;22478;51.740;-1.314;2023-02-18T03:44:11;100808.59;;;3.38;100.00
36454;BME280;22478;51.740;-1.314;2023-02-18T03:46:40;100809.12;;;1.67;100.00
36454;BME280;22478;51.740;-1.314;2023-02-18T03:49:09;100801.12;;;1.64;100.00
36454;BME280;22478;51.740;-1.314;2023-02-18T03:51:37;100797.35;;;2.33;100.00
36454;BME280;22478;51.740;-1.314;2023-02-18T03:54:04;100801.31;;;1.60;100.00
36454;BME280;22478;51.740;-1.314;2023-02-18T03:56:32;100795.29;;;2.39;100.00
36454;BME280;22478;51.740;-1.314;2023-02-18T03:59:00;100795.56;;;3.45;100.00
36454;BME280;22478;51.740;-1.314;2023-02-18T04:01:27;100798.41;;;2.26;100.00
36454;BME280;22478;51.740;-1.314;2023-02-18T04:03:55;100799.26;;;3.90;100.00
36454;BME280;22478;51.740;-1.314;2023-02-18T04:06:23;100808.40;;;3.93;100.00
36454;BME280;22478;51.740;-1.314;2023-02-18T04:08:50;100812.96;;;2.38;100.00
36454;BME280;22478;51.740;-1.314;2023-02-18T04:11:17;100799.08;;;2.94;100.00
36454;BME280;22478;51.740;-1.314;2023-02-18T04:13:45;100796.05;;;2.52;100.00
36454;BME280;22478;51.740;-1.314;2023-02-18T04:16:12;100794.81;;;2.69;100.00
36454;BME280;22478;51.740;-1.314;2023-02-18T04:18:40;100795.96;;;2.29;100.00
36454;BME280;22478;51.740;-1.314;2023-02-18T04:21:08;100792.24;;;1.84;100.00
36454;BME280;22478;51.740;-1.314;2023-02-18T04:23:35;100785.50;;;4.30;100.00
36454;BME280;22478;51.740;-1.314;2023-02-18T04:26:03;100789.28;;;3.57;100.00
36454;BME280;22478;51.740;-1.314;2023-02-18T04:28:30;100776.92;;;2.75;100.00
36454;BME280;22478;51.740;-1.314;2023-02-18T04:30:58;100770.73;;;3.54;100.00
36454;BME280;22478;51.740;-1.314;2023-02-18T04:33:25;100769.79;;;2.37;100.00
36454;BME280;22478;51.740;-1.314;2023-02-18T04:35:52;100762.96;;;3.48;100.00
36454;BME280;22478;51.740;-1.314;2023-02-18T04:38:20;100762.96;;;2.56;100.00
36454;BME280;22478;51.740;-1.314;2023-02-18T04:40:47;100771.49;;;3.13;100.00
36454;BME280;22478;51.740;-1.314;2023-02-18T04:43:14;100768.34;;;2.25;100.00
36454;BME280;22478;51.740;-1.314;2023-02-18T04:45:41;100768.47;;;3.19;100.00
36454;BME280;22478;51.740;-1.314;2023-02-18T04:48:08;100769.84;;;2.37;100.00
36454;BME280;22478;51.740;-1.314;2023-02-18T04:50:36;100776.55;;;2.59;100.00
36454;BME280;22478;51.740;-1.314;2023-02-18T04:53:03;100779.59;;;2.36;100.00
36454;BME280;22478;51.740;-1.314;2023-02-18T04:55:30;100774.96;;;2.76;100.00
36454;BME280;22478;51.740;-1.314;2023-02-18T04:57:58;100785.91;;;3.07;100.00
36454;BME280;22478;51.740;-1.314;2023-02-18T05:00:25;100780.95;;;3.19;100.00
36454;BME280;22478;51.740;-1.314;2023-02-18T05:02:51;100788.20;;;1.67;100.00
36454;BME280;22478;51.740;-1.314;2023-02-18T05:05:19;100789.54;;;3.10;100.00
36454;BME280;22478;51.740;-1.314;2023-02-18T05:07:46;100790.71;;;2.94;100.00
36454;BME280;22478;51.740;-1.314;2023-02-18T05:10:15;100793.24;;;2.26;100.00
36454;BME280;22478;51.740;-1.314;2023-02-18T05:12:43;100796.63;;;2.59;100.00
36454;BME280;22478;51.740;-1.314;2023-02-18T05:15:11;100773.50;;;3.42;100.00
36454;BME280;22478;51.740;-1.314;2023-02-18T05:17:38;100775.05;;;3.05;100.00
36454;BME280;22478;51.740;-1.314;2023-02-18T05:20:06;100771.15;;;2.67;100.00
36454;BME280;22478;51.740;-1.314;2023-02-18T05:22:34;100771.31;;;2.95;100.00
36454;BME280;22478;51.740;-1.314;2023-02-18T05:25:01;100763.15;;;2.20;100.00
36454;BME280;22478;51.740;-1.314;2023-02-18T05:27:29;100761.67;;;2.54;100.00
36454;BME280;22478;51.740;-1.314;2023-02-18T05:29:56;100770.38;;;3.14;100.00
36454;BME280;22478;51.740;-1.314;2023-02-18T05:32:24;100768.31;;;3.19;100.00
36454;BME280;22478;51.740;-1.314;2023-02-18T05:34:52;100774.01;;;2.96;100.00
36454;BME280;22478;51.740;-1.314;2023-02-18T05:37:19;100777.89;;;2.48;100.00
36454;BME280;22478;51.740;-1.314;2023-02-18T05:39:46;100773.15;;;2.87;100.00
36454;BME280;22478;51.740;-1.314;2023-02-18T05:42:13;100776.67;;;2.81;100.00
36454;BME280;22478;51.740;-1.314;2023-02-18T05:44:40;100780.84;;;2.36;100.00
36454;BME280;22478;51.740;-1.314;2023-02-18T05:47:10;100778.98;;;2.42;100.00
36454;BME280;22478;51.740;-1.314;2023-02-18T05:49:38;100774.64;;;2.50;100.00
36454;BME280;22478;51.740;-1.314;2023-02-18T05:52:06;100762.76;;;3.55;100.00
36454;BME280;22478;51.740;-1.314;2023-02-18T05:54:34;100770.85;;;3.19;100.00
36454;BME280;22478;51.740;-1.314;2023-02-18T05:57:03;100771.43;;;3.22;100.00
36454;BME280;22478;51.740;-1.314;2023-02-18T05:59:30;100783.10;;;3.16;100.00
36454;BME280;22478;51.740;-1.314;2023-02-18T06:01:58;100781.87;;;2.87;100.00
36454;BME280;22478;51.740;-1.314;2023-02-18T06:04:25;100769.98;;;3.17;100.00
36454;BME280;22478;51.740;-1.314;2023-02-18T06:06:52;100777.11;;;3.48;100.00
36454;BME280;22478;51.740;-1.314;2023-02-18T06:09:20;100774.96;;;3.67;100.00
36454;BME280;22478;51.740;-1.314;2023-02-18T06:11:47;100774.95;;;3.15;100.00
36454;BME280;22478;51.740;-1.314;2023-02-18T06:14:15;100769.38;;;3.10;100.00
36454;BME280;22478;51.740;-1.314;2023-02-18T06:16:42;100764.46;;;3.37;100.00
36454;BME280;22478;51.740;-1.314;2023-02-18T06:19:09;100758.08;;;2.96;100.00
36454;BME280;22478;51.740;-1.314;2023-02-18T06:21:37;100756.46;;;2.76;100.00
36454;BME280;22478;51.740;-1.314;2023-02-18T06:24:05;100747.67;;;2.68;100.00
36454;BME280;22478;51.740;-1.314;2023-02-18T06:26:33;100744.77;;;2.89;100.00
36454;BME280;22478;51.740;-1.314;2023-02-18T06:29:00;100749.38;;;4.80;100.00
36454;BME280;22478;51.740;-1.314;2023-02-18T06:31:27;100753.24;;;3.06;100.00
36454;BME280;22478;51.740;-1.314;2023-02-18T06:33:55;100744.26;;;4.01;100.00
36454;BME280;22478;51.740;-1.314;2023-02-18T06:36:22;100750.80;;;2.98;100.00
36454;BME280;22478;51.740;-1.314;2023-02-18T06:38:49;100747.62;;;3.58;100.00
36454;BME280;22478;51.740;-1.314;2023-02-18T06:41:16;100751.34;;;2.10;100.00
36454;BME280;22478;51.740;-1.314;2023-02-18T06:43:44;100758.12;;;3.00;100.00
36454;BME280;22478;51.740;-1.314;2023-02-18T06:46:11;100758.21;;;2.19;100.00
36454;BME280;22478;51.740;-1.314;2023-02-18T06:48:38;100753.51;;;2.51;100.00
36454;BME280;22478;51.740;-1.314;2023-02-18T06:51:06;100757.02;;;3.29;100.00
36454;BME280;22478;51.740;-1.314;2023-02-18T06:53:33;100759.12;;;2.92;100.00
36454;BME280;22478;51.740;-1.314;2023-02-18T06:56:01;100753.39;;;2.53;100.00
36454;BME280;22478;51.740;-1.314;2023-02-18T06:58:29;100755.89;;;3.37;100.00
36454;BME280;22478;51.740;-1.314;2023-02-18T07:00:56;100756.06;;;3.48;100.00
36454;BME280;22478;51.740;-1.314;2023-02-18T07:03:24;100758.68;;;3.77;100.00
36454;BME280;22478;51.740;-1.314;2023-02-18T07:05:52;100764.92;;;2.26;100.00
36454;BME280;22478;51.740;-1.314;2023-02-18T07:08:19;100767.96;;;3.15;100.00
36454;BME280;22478;51.740;-1.314;2023-02-18T07:10:47;100774.25;;;2.18;100.00
36454;BME280;22478;51.740;-1.314;2023-02-18T07:13:15;100772.61;;;2.97;100.00
36454;BME280;22478;51.740;-1.314;2023-02-18T07:15:42;100771.67;;;2.57;100.00
36454;BME280;22478;51.740;-1.314;2023-02-18T07:18:09;100769.68;;;3.43;100.00
36454;BME280;22478;51.740;-1.314;2023-02-18T07:20:37;100752.67;;;3.18;100.00
36454;BME280;22478;51.740;-1.314;2023-02-18T07:23:04;100746.01;;;3.55;100.00
36454;BME280;22478;51.740;-1.314;2023-02-18T07:25:31;100734.75;;;4.21;100.00
36454;BME280;22478;51.740;-1.314;2023-02-18T07:27:59;100757.84;;;2.42;100.00
36454;BME280;22478;51.740;-1.314;2023-02-18T07:30:26;100766.21;;;3.30;100.00
36454;BME280;22478;51.740;-1.314;2023-02-18T07:32:53;100762.99;;;2.64;100.00
36454;BME280;22478;51.740;-1.314;2023-02-18T07:35:20;100768.77;;;2.50;100.00
36454;BME280;22478;51.740;-1.314;2023-02-18T07:37:48;100773.60;;;3.24;100.00
36454;BME280;22478;51.740;-1.314;2023-02-18T07:40:18;100772.82;;;3.29;100.00
36454;BME280;22478;51.740;-1.314;2023-02-18T07:42:46;100771.55;;;3.37;100.00
36454;BME280;22478;51.740;-1.314;2023-02-18T07:45:14;100773.34;;;2.78;100.00
36454;BME280;22478;51.740;-1.314;2023-02-18T07:47:41;100782.24;;;2.49;100.00
36454;BME280;22478;51.740;-1.314;2023-02-18T07:50:09;100784.40;;;3.08;100.00
36454;BME280;22478;51.740;-1.314;2023-02-18T07:52:37;100774.48;;;2.85;100.00
36454;BME280;22478;51.740;-1.314;2023-02-18T07:55:05;100777.74;;;2.63;100.00
36454;BME280;22478;51.740;-1.314;2023-02-18T07:57:32;100775.50;;;2.15;100.00
36454;BME280;22478;51.740;-1.314;2023-02-18T07:59:59;100774.09;;;1.98;100.00
36454;BME280;22478;51.740;-1.314;2023-02-18T08:02:26;100781.85;;;2.91;100.00
36454;BME280;22478;51.740;-1.314;2023-02-18T08:04:54;100779.37;;;2.45;100.00
36454;BME280;22478;51.740;-1.314;2023-02-18T08:07:22;100788.71;;;3.11;100.00
36454;BME280;22478;51.740;-1.314;2023-02-18T08:09:49;100781.13;;;2.27;100.00
36454;BME280;22478;51.740;-1.314;2023-02-18T08:12:16;100780.54;;;2.46;100.00
36454;BME280;22478;51.740;-1.314;2023-02-18T08:14:44;100773.93;;;3.09;100.00
36454;BME280;22478;51.740;-1.314;2023-02-18T08:17:11;100775.06;;;2.98;100.00
36454;BME280;22478;51.740;-1.314;2023-02-18T08:19:39;100771.55;;;3.10;100.00
36454;BME280;22478;51.740;-1.314;2023-02-18T08:22:06;100770.24;;;2.92;100.00
36454;BME280;22478;51.740;-1.314;2023-02-18T08:24:33;100780.01;;;3.25;100.00
36454;BME280;22478;51.740;-1.314;2023-02-18T08:27:00;100775.43;;;2.51;100.00
36454;BME280;22478;51.740;-1.314;2023-02-18T08:29:28;100761.75;;;2.73;100.00
36454;BME280;22478;51.740;-1.314;2023-02-18T08:32:00;100766.18;;;2.41;100.00
36454;BME280;22478;51.740;-1.314;2023-02-18T08:34:28;100768.86;;;1.95;100.00
36454;BME280;22478;51.740;-1.314;2023-02-18T08:36:54;100776.38;;;2.86;100.00
36454;BME280;22478;51.740;-1.314;2023-02-18T08:39:22;100772.56;;;3.00;100.00
36454;BME280;22478;51.740;-1.314;2023-02-18T08:41:49;100773.24;;;3.67;100.00
36454;BME280;22478;51.740;-1.314;2023-02-18T08:44:17;100775.77;;;3.32;100.00
36454;BME280;22478;51.740;-1.314;2023-02-18T08:46:49;100787.00;;;2.83;100.00
36454;BME280;22478;51.740;-1.314;2023-02-18T08:49:16;100779.57;;;4.01;100.00
36454;BME280;22478;51.740;-1.314;2023-02-18T08:51:43;100781.54;;;2.77;100.00
36454;BME280;22478;51.740;-1.314;2023-02-18T08:54:11;100784.29;;;3.08;100.00
36454;BME280;22478;51.740;-1.314;2023-02-18T08:56:39;100780.93;;;3.41;100.00
36454;BME280;22478;51.740;-1.314;2023-02-18T08:59:06;100791.83;;;3.14;100.00
36454;BME280;22478;51.740;-1.314;2023-02-18T09:01:34;100805.90;;;2.44;100.00
36454;BME280;22478;51.740;-1.314;2023-02-18T09:04:01;100793.28;;;3.14;100.00
36454;BME280;22478;51.740;-1.314;2023-02-18T09:06:28;100799.93;;;3.50;100.00
36454;BME280;22478;51.740;-1.314;2023-02-18T09:08:55;100797.85;;;2.76;100.00
36454;BME280;22478;51.740;-1.314;2023-02-18T09:11:22;100800.98;;;4.45;100.00
36454;BME280;22478;51.740;-1.314;2023-02-18T09:13:50;100799.59;;;3.39;100.00
36454;BME280;22478;51.740;-1.314;2023-02-18T09:16:17;100799.06;;;2.86;100.00
36454;BME280;22478;51.740;-1.314;2023-02-18T09:18:46;100792.85;;;3.97;100.00
36454;BME280;22478;51.740;-1.314;2023-02-18T09:21:15;100793.47;;;2.84;100.00
36454;BME280;22478;51.740;-1.314;2023-02-18T09:23:42;100781.44;;;4.09;100.00
36454;BME280;22478;51.740;-1.314;2023-02-18T09:26:14;100790.52;;;3.98;100.00
36454;BME280;22478;51.740;-1.314;2023-02-18T09:28:41;100792.63;;;3.14;100.00
36454;BME280;22478;51.740;-1.314;2023-02-18T09:31:10;100786.60;;;3.86;100.00
36454;BME280;22478;51.740;-1.314;2023-02-18T09:33:41;100774.50;;;3.16;100.00
36454;BME280;22478;51.740;-1.314;2023-02-18T09:36:10;100778.42;;;3.69;100.00
36454;BME280;22478;51.740;-1.314;2023-02-18T09:38:38;100772.59;;;3.25;100.00
36454;BME280;22478;51.740;-1.314;2023-02-18T09:41:09;100763.52;;;5.08;100.00
36454;BME280;22478;51.740;-1.314;2023-02-18T09:43:45;100771.32;;;3.72;100.00
36454;BME280;22478;51.740;-1.314;2023-02-18T09:46:19;100778.01;;;4.69;100.00
36454;BME280;22478;51.740;-1.314;2023-02-18T09:48:55;100798.34;;;3.75;100.00
36454;BME280;22478;51.740;-1.314;2023-02-18T09:51:27;100796.20;;;4.35;100.00
36454;BME280;22478;51.740;-1.314;2023-02-18T09:53:56;100803.58;;;3.22;100.00
36454;BME280;22478;51.740;-1.314;2023-02-18T09:56:31;100808.04;;;4.27;100.00
36454;BME280;22478;51.740;-1.314;2023-02-18T09:59:04;100820.13;;;4.18;100.00
36454;BME280;22478;51.740;-1.314;2023-02-18T10:01:40;100817.98;;;5.01;100.00
36454;BME280;22478;51.740;-1.314;2023-02-18T10:04:19;100815.27;;;5.51;100.00
36454;BME280;22478;51.740;-1.314;2023-02-18T10:06:50;100820.10;;;4.42;100.00
36454;BME280;22478;51.740;-1.314;2023-02-18T10:09:20;100824.32;;;5.25;100.00
36454;BME280;22478;51.740;-1.314;2023-02-18T10:11:57;100834.69;;;3.86;100.00
36454;BME280;22478;51.740;-1.314;2023-02-18T10:14:33;100836.26;;;3.96;100.00
36454;BME280;22478;51.740;-1.314;2023-02-18T10:17:01;100835.75;;;3.25;100.00
36454;BME280;22478;51.740;-1.314;2023-02-18T10:19:33;100821.04;;;4.92;100.00
36454;BME280;22478;51.740;-1.314;2023-02-18T10:22:06;100826.28;;;3.78;100.00
36454;BME280;22478;51.740;-1.314;2023-02-18T10:24:40;100815.41;;;4.22;100.00
36454;BME280;22478;51.740;-1.314;2023-02-18T10:27:14;100815.42;;;4.86;100.00
36454;BME280;22478;51.740;-1.314;2023-02-18T10:29:44;100823.41;;;4.33;100.00
36454;BME280;22478;51.740;-1.314;2023-02-18T10:32:22;100810.61;;;5.51;100.00
36454;BME280;22478;51.740;-1.314;2023-02-18T10:35:01;100817.07;;;4.64;100.00
36454;BME280;22478;51.740;-1.314;2023-02-18T10:37:44;100824.95;;;5.86;100.00
36454;BME280;22478;51.740;-1.314;2023-02-18T10:40:22;100833.84;;;4.01;100.00
36454;BME280;22478;51.740;-1.314;2023-02-18T10:43:01;100829.01;;;4.86;100.00
36454;BME280;22478;51.740;-1.314;2023-02-18T10:45:39;100842.34;;;4.37;100.00
36454;BME280;22478;51.740;-1.314;2023-02-18T10:48:22;100843.79;;;4.03;100.00
36454;BME280;22478;51.740;-1.314;2023-02-18T10:50:52;100844.36;;;4.51;100.00
36454;BME280;22478;51.740;-1.314;2023-02-18T10:53:30;100830.23;;;5.66;100.00
36454;BME280;22478;51.740;-1.314;2023-02-18T10:55:59;100835.70;;;5.28;100.00
36454;BME280;22478;51.740;-1.314;2023-02-18T10:58:31;100835.12;;;4.82;100.00
36454;BME280;22478;51.740;-1.314;2023-02-18T11:01:00;100834.59;;;4.15;100.00
36454;BME280;22478;51.740;-1.314;2023-02-18T11:03:39;100834.49;;;4.63;100.00
36454;BME280;22478;51.740;-1.314;2023-02-18T11:06:16;100825.99;;;5.16;100.00
36454;BME280;22478;51.740;-1.314;2023-02-18T11:08:46;100827.41;;;5.46;100.00
36454;BME280;22478;51.740;-1.314;2023-02-18T11:11:22;100827.39;;;5.37;100.00
36454;BME280;22478;51.740;-1.314;2023-02-18T11:13:53;100819.91;;;5.04;100.00
36454;BME280;22478;51.740;-1.314;2023-02-18T11:16:22;100819.33;;;6.37;100.00
36454;BME280;22478;51.740;-1.314;2023-02-18T11:18:49;100824.45;;;4.20;100.00
36454;BME280;22478;51.740;-1.314;2023-02-18T11:21:28;100821.40;;;5.76;100.00
36454;BME280;22478;51.740;-1.314;2023-02-18T11:23:56;100828.76;;;5.42;100.00
36454;BME280;22478;51.740;-1.314;2023-02-18T11:26:28;100831.68;;;5.21;100.00
36454;BME280;22478;51.740;-1.314;2023-02-18T11:28:59;100836.23;;;4.97;100.00
36454;BME280;22478;51.740;-1.314;2023-02-18T11:31:36;100841.87;;;5.54;100.00
36454;BME280;22478;51.740;-1.314;2023-02-18T11:34:05;100841.82;;;5.06;100.00
36454;BME280;22478;51.740;-1.314;2023-02-18T11:36:34;100848.79;;;3.96;100.00
36454;BME280;22478;51.740;-1.314;2023-02-18T11:39:04;100854.16;;;3.76;100.00
36454;BME280;22478;51.740;-1.314;2023-02-18T11:41:36;100856.21;;;4.66;100.00
36454;BME280;22478;51.740;-1.314;2023-02-18T11:44:07;100849.40;;;5.27;100.00
36454;BME280;22478;51.740;-1.314;2023-02-18T11:46:56;100852.58;;;5.07;100.00
36454;BME280;22478;51.740;-1.314;2023-02-18T11:49:29;100845.56;;;7.34;100.00
36454;BME280;22478;51.740;-1.314;2023-02-18T11:52:04;100841.65;;;5.59;100.00
36454;BME280;22478;51.740;-1.314;2023-02-18T11:54:32;100837.82;;;5.88;100.00
36454;BME280;22478;51.740;-1.314;2023-02-18T11:57:01;100831.00;;;6.62;100.00
36454;BME280;22478;51.740;-1.314;2023-02-18T11:59:32;100833.92;;;6.67;100.00
36454;BME280;22478;51.740;-1.314;2023-02-18T12:02:05;100836.14;;;5.57;100.00
36454;BME280;22478;51.740;-1.314;2023-02-18T12:04:42;100838.88;;;5.70;100.00
36454;BME280;22478;51.740;-1.314;2023-02-18T12:07:18;100831.10;;;5.76;100.00
36454;BME280;22478;51.740;-1.314;2023-02-18T12:09:48;100836.84;;;5.93;100.00
36454;BME280;22478;51.740;-1.314;2023-02-18T12:12:21;100843.51;;;5.32;100.00
36454;BME280;22478;51.740;-1.314;2023-02-18T12:14:51;100845.55;;;4.19;100.00
36454;BME280;22478;51.740;-1.314;2023-02-18T12:17:29;100846.24;;;4.97;100.00
36454;BME280;22478;51.740;-1.314;2023-02-18T12:20:12;100842.07;;;4.52;100.00
36454;BME280;22478;51.740;-1.314;2023-02-18T12:22:44;100833.30;;;5.18;100.00
36454;BME280;22478;51.740;-1.314;2023-02-18T12:25:23;100826.73;;;5.63;100.00
36454;BME280;22478;51.740;-1.314;2023-02-18T12:28:03;100826.62;;;4.88;100.00
36454;BME280;22478;51.740;-1.314;2023-02-18T12:30:55;100831.31;;;4.72;100.00
36454;BME280;22478;51.740;-1.314;2023-02-18T12:33:33;100832.07;;;4.89;100.00
36454;BME280;22478;51.740;-1.314;2023-02-18T12:36:12;100826.10;;;5.85;100.00
36454;BME280;22478;51.740;-1.314;2023-02-18T12:38:55;100829.05;;;5.19;100.00
36454;BME280;22478;51.740;-1.314;2023-02-18T12:41:44;100832.84;;;5.11;100.00
36454;BME280;22478;51.740;-1.314;2023-02-18T12:44:29;100819.82;;;4.59;100.00
36454;BME280;22478;51.740;-1.314;2023-02-18T12:47:14;100821.33;;;5.26;100.00
36454;BME280;22478;51.740;-1.314;2023-02-18T12:51:02;100815.75;;;5.15;100.00
36454;BME280;22478;51.740;-1.314;2023-02-18T12:53:48;100812.83;;;4.98;100.00
36454;BME280;22478;51.740;-1.314;2023-02-18T12:56:42;100799.87;;;7.23;100.00
36454;BME280;22478;51.740;-1.314;2023-02-18T12:59:26;100803.12;;;5.70;100.00
36454;BME280;22478;51.740;-1.314;2023-02-18T13:02:01;100805.41;;;5.63;100.00
36454;BME280;22478;51.740;-1.314;2023-02-18T13:04:44;100805.00;;;5.32;100.00